Time;durP1;ratioP1;P1;durP2;ratioP2;P2;SDS_P1;SDS_P2;PMS_P1;PMS_P2;Temp;Humidity;BMP_temperature;BMP_pressure;BME280_temperature;BME280_humidity;BME280_pressure;Samples;Min_cycle;Max_cycle;Signal;HPM_P1;HPM_P2
2023/07/17 00:00:15;;;;;;;1999.90;999.90;;;17.30;99.90;;;;;;4974122;28;20035;-74
2023/07/17 00:02:41;;;;;;;1999.90;999.90;;;17.30;99.90;;;;;;4974497;28;20023;-74
2023/07/17 00:05:09;;;;;;;1999.90;999.90;;;17.20;99.90;;;;;;4974099;28;20118;-69
2023/07/17 00:07:35;;;;;;;1999.90;999.90;;;17.20;99.90;;;;;;4974231;28;20019;-70
2023/07/17 00:10:03;;;;;;;1999.90;999.90;;;17.10;99.90;;;;;;4974192;28;20030;-70
2023/07/17 00:12:30;;;;;;;1999.90;999.90;;;17.00;99.90;;;;;;4974307;28;20023;-70
2023/07/17 00:14:55;;;;;;;1999.90;999.90;;;16.90;99.90;;;;;;4962347;28;20028;-72
2023/07/17 00:17:22;;;;;;;1999.90;999.90;;;16.80;99.90;;;;;;4955158;29;20418;-69
2023/07/17 00:19:56;;;;;;;1999.90;999.90;;;16.70;99.90;;;;;;4956321;28;20027;-69
2023/07/17 00:22:24;;;;;;;1999.90;999.90;;;16.70;99.90;;;;;;4958696;29;20026;-70
2023/07/17 00:24:51;;;;;;;1999.90;999.90;;;16.60;99.90;;;;;;4958390;29;20031;-70
2023/07/17 00:27:17;;;;;;;1999.90;999.90;;;16.60;99.90;;;;;;4958685;29;20023;-74
2023/07/17 00:29:44;;;;;;;1999.90;999.90;;;16.50;99.90;;;;;;4958897;28;20035;-70
2023/07/17 00:32:13;;;;;;;1999.90;999.90;;;16.50;99.90;;;;;;4958499;29;20035;-70
2023/07/17 00:34:39;;;;;;;1999.90;999.90;;;16.50;99.90;;;;;;4957822;29;20118;-70
2023/07/17 00:37:05;;;;;;;1999.90;999.90;;;16.40;99.90;;;;;;4958664;28;20090;-70
2023/07/17 00:39:31;;;;;;;1999.90;999.90;;;16.40;99.90;;;;;;4958383;28;20035;-74
2023/07/17 00:41:57;;;;;;;1999.90;999.90;;;16.30;99.90;;;;;;4957917;28;20028;-74
2023/07/17 00:44:23;;;;;;;1999.90;999.90;;;16.30;99.90;;;;;;4957549;28;20042;-69
2023/07/17 00:46:52;;;;;;;1999.90;999.90;;;16.20;99.90;;;;;;4958102;29;20065;-69
2023/07/17 00:49:19;;;;;;;1999.90;999.90;;;16.20;99.90;;;;;;4958077;29;20031;-70
2023/07/17 00:51:45;;;;;;;1999.90;999.90;;;16.20;99.90;;;;;;4958167;29;20030;-69
2023/07/17 00:54:14;;;;;;;1999.90;999.90;;;16.10;99.90;;;;;;4957840;28;20070;-70
2023/07/17 00:56:41;;;;;;;1999.90;999.90;;;16.10;99.90;;;;;;4957416;29;20066;-74
2023/07/17 00:59:06;;;;;;;1999.90;999.90;;;16.10;99.90;;;;;;4956887;29;20030;-69
2023/07/17 01:01:33;;;;;;;1999.90;999.90;;;16.10;99.90;;;;;;4957968;29;20031;-69
2023/07/17 01:04:03;;;;;;;1999.90;999.90;;;16.00;99.90;;;;;;4940859;29;20389;-69
2023/07/17 01:06:30;;;;;;;1999.90;999.90;;;16.00;99.90;;;;;;4957950;29;20106;-69
2023/07/17 01:08:55;;;;;;;1999.90;999.90;;;16.00;99.90;;;;;;4957522;29;20058;-69
2023/07/17 01:11:21;;;;;;;1999.90;999.90;;;16.00;99.90;;;;;;4957674;29;20027;-69
2023/07/17 01:13:48;;;;;;;1999.90;999.90;;;15.90;99.90;;;;;;4957723;29;20039;-69
2023/07/17 01:16:14;;;;;;;1999.90;999.90;;;15.80;99.90;;;;;;4958008;29;20028;-69
2023/07/17 01:18:40;;;;;;;1999.90;999.90;;;15.80;99.90;;;;;;4940738;29;20139;-74
2023/07/17 01:21:08;;;;;;;1999.90;999.90;;;15.80;99.90;;;;;;4958413;29;20098;-74
2023/07/17 01:23:35;;;;;;;1999.90;999.90;;;15.80;99.90;;;;;;4957767;29;20398;-69
2023/07/17 01:26:09;;;;;;;1999.90;999.90;;;15.80;99.90;;;;;;4957437;29;20483;-70
2023/07/17 01:28:35;;;;;;;1999.90;999.90;;;15.70;99.90;;;;;;4957466;29;20039;-69
2023/07/17 01:31:00;;;;;;;1999.90;999.90;;;15.60;99.90;;;;;;4955911;28;20027;-69
2023/07/17 01:33:26;;;;;;;1999.90;999.90;;;15.60;99.90;;;;;;4957228;29;20028;-74
2023/07/17 01:35:52;;;;;;;1999.90;999.90;;;15.60;99.90;;;;;;4957501;28;20039;-70
2023/07/17 01:38:17;;;;;;;1999.90;999.90;;;15.60;99.90;;;;;;4957236;28;20027;-69
2023/07/17 01:40:43;;;;;;;1999.90;999.90;;;15.70;99.90;;;;;;4957595;28;20032;-70
2023/07/17 01:43:08;;;;;;;1999.90;999.90;;;15.70;99.90;;;;;;4957429;28;20037;-70
2023/07/17 01:45:34;;;;;;;1999.90;999.90;;;15.80;99.90;;;;;;4957158;29;20028;-74
2023/07/17 01:47:59;;;;;;;1999.90;999.90;;;15.90;99.90;;;;;;4955763;29;20049;-70
2023/07/17 01:50:25;;;;;;;1999.90;999.90;;;15.90;99.90;;;;;;4957493;28;20051;-69
2023/07/17 01:52:51;;;;;;;1999.90;999.90;;;15.90;99.90;;;;;;4957098;28;20115;-69
2023/07/17 01:55:16;;;;;;;1999.90;999.90;;;16.00;99.90;;;;;;4956039;29;20087;-69
2023/07/17 01:57:42;;;;;;;1999.90;999.90;;;16.00;99.90;;;;;;4956164;28;20130;-69
2023/07/17 02:00:12;;;;;;;1999.90;999.90;;;16.00;99.90;;;;;;4955986;29;20024;-74
2023/07/17 02:02:38;;;;;;;1999.90;999.90;;;16.00;99.90;;;;;;4957308;28;20035;-70
2023/07/17 02:05:04;;;;;;;1999.90;999.90;;;16.00;99.90;;;;;;4957242;28;20027;-70
2023/07/17 02:07:29;;;;;;;1999.90;999.90;;;16.00;99.90;;;;;;4957023;28;20031;-69
2023/07/17 02:09:55;;;;;;;1999.90;999.90;;;16.10;99.90;;;;;;4956722;28;20389;-70
2023/07/17 02:12:21;;;;;;;1999.90;999.90;;;16.20;99.90;;;;;;4956597;29;20035;-74
2023/07/17 02:14:47;;;;;;;1999.90;999.90;;;16.20;99.90;;;;;;4936054;29;20028;-73
2023/07/17 02:17:12;;;;;;;1999.90;999.90;;;16.30;99.90;;;;;;4937680;29;20036;-70
2023/07/17 02:19:38;;;;;;;1999.90;999.90;;;16.30;99.90;;;;;;4937558;29;20023;-70
2023/07/17 02:22:04;;;;;;;1999.90;999.90;;;16.20;99.90;;;;;;4920156;29;20031;-70
2023/07/17 02:24:30;;;;;;;1999.90;999.90;;;16.10;99.90;;;;;;4941686;29;20030;-74
2023/07/17 02:26:58;;;;;;;1999.90;999.90;;;16.10;99.90;;;;;;4956112;29;20028;-70
2023/07/17 02:29:24;;;;;;;1999.90;999.90;;;16.00;99.90;;;;;;4955102;29;20031;-69
2023/07/17 02:31:50;;;;;;;1999.90;999.90;;;15.90;99.90;;;;;;4956540;29;20031;-70
2023/07/17 02:34:16;;;;;;;1999.90;999.90;;;15.90;99.90;;;;;;4956111;29;20031;-70
2023/07/17 02:36:42;;;;;;;1999.90;999.90;;;15.80;99.90;;;;;;4956025;28;20035;-69
2023/07/17 02:39:08;;;;;;;1999.90;999.90;;;15.70;99.90;;;;;;4954821;29;20023;-74
2023/07/17 02:41:34;;;;;;;1999.90;999.90;;;15.70;99.90;;;;;;4955651;28;20031;-69
2023/07/17 02:44:00;;;;;;;1999.90;999.90;;;15.70;99.90;;;;;;4956627;28;20019;-69
2023/07/17 02:46:25;;;;;;;1999.90;999.90;;;15.60;99.90;;;;;;4956122;29;20518;-69
2023/07/17 02:48:51;;;;;;;1999.90;999.90;;;15.70;99.90;;;;;;4956210;28;20035;-70
2023/07/17 02:51:16;;;;;;;1999.90;999.90;;;15.60;99.90;;;;;;4956271;28;20382;-70
2023/07/17 02:53:42;;;;;;;1999.90;999.90;;;15.60;99.90;;;;;;4954507;29;20510;-74
2023/07/17 02:56:08;;;;;;;1999.90;999.90;;;15.60;99.90;;;;;;4956092;28;20125;-69
2023/07/17 02:58:39;;;;;;;1999.90;999.90;;;15.60;99.90;;;;;;4954818;28;20027;-69
2023/07/17 03:01:06;;;;;;;1999.90;999.90;;;15.50;99.90;;;;;;4955754;28;20111;-69
2023/07/17 03:03:31;;;;;;;1999.90;999.90;;;15.50;99.90;;;;;;4955929;28;20015;-70
2023/07/17 03:05:57;;;;;;;1999.90;999.90;;;15.40;99.90;;;;;;4956561;28;20063;-74
2023/07/17 03:08:22;;;;;;;1999.90;999.90;;;15.40;99.90;;;;;;4955627;28;20038;-69
2023/07/17 03:10:48;;;;;;;1999.90;999.90;;;15.40;99.90;;;;;;4955626;28;20037;-69
2023/07/17 03:13:14;;;;;;;1999.90;999.90;;;15.30;99.90;;;;;;4955664;29;20020;-69
2023/07/17 03:15:39;;;;;;;1999.90;999.90;;;15.40;99.90;;;;;;4955259;29;20027;-70
2023/07/17 03:18:05;;;;;;;1999.90;999.90;;;15.40;99.90;;;;;;4956041;29;20027;-75
2023/07/17 03:20:30;;;;;;;1999.90;999.90;;;15.30;99.90;;;;;;4937652;29;20378;-69
2023/07/17 03:22:56;;;;;;;1999.90;999.90;;;15.30;99.90;;;;;;4955546;29;20043;-70
2023/07/17 03:25:21;;;;;;;1999.90;999.90;;;15.30;99.90;;;;;;4955347;29;20422;-70
2023/07/17 03:27:47;;;;;;;1999.90;999.90;;;15.30;99.90;;;;;;4955497;29;20024;-69
2023/07/17 03:30:13;;;;;;;1999.90;999.90;;;15.30;99.90;;;;;;4955924;29;20537;-74
2023/07/17 03:32:38;;;;;;;1999.90;999.90;;;15.30;99.90;;;;;;4955154;29;20486;-74
2023/07/17 03:35:05;;;;;;;1999.90;999.90;;;15.30;99.90;;;;;;4955879;28;20027;-70
2023/07/17 03:37:30;;;;;;;1999.90;999.90;;;15.40;99.90;;;;;;4954116;29;20042;-69
2023/07/17 03:39:56;;;;;;;1999.90;999.90;;;15.40;99.90;;;;;;4955103;28;20027;-69
2023/07/17 03:42:22;;;;;;;1999.90;999.90;;;15.30;99.90;;;;;;4955366;28;20121;-70
2023/07/17 03:44:48;;;;;;;1999.90;999.90;;;15.30;99.90;;;;;;4955444;28;20027;-74
2023/07/17 03:47:13;;;;;;;1999.90;999.90;;;15.30;99.90;;;;;;4955153;28;20086;-70
2023/07/17 03:49:39;;;;;;;1999.90;999.90;;;15.20;99.90;;;;;;4953728;29;20486;-70
2023/07/17 03:52:05;;;;;;;1999.90;999.90;;;15.20;99.90;;;;;;4955174;28;20036;-69
2023/07/17 03:54:30;;;;;;;1999.90;999.90;;;15.10;99.90;;;;;;4955281;28;20470;-74
2023/07/17 03:56:56;;;;;;;1999.90;999.90;;;15.10;99.90;;;;;;4955568;28;20027;-70
2023/07/17 03:59:24;;;;;;;1999.90;999.90;;;15.10;99.90;;;;;;4952810;29;20031;-70
2023/07/17 04:01:50;;;;;;;1999.90;999.90;;;15.10;99.90;;;;;;4953569;29;20114;-70
2023/07/17 04:04:16;;;;;;;1999.90;999.90;;;15.10;99.90;;;;;;4954977;28;20027;-70
2023/07/17 04:06:42;;;;;;;1999.90;999.90;;;15.10;99.90;;;;;;4955317;28;20027;-70
2023/07/17 04:09:07;;;;;;;1999.90;999.90;;;15.10;99.90;;;;;;4954709;28;20058;-74
2023/07/17 04:11:33;;;;;;;1999.90;999.90;;;15.00;99.90;;;;;;4954939;29;20043;-69
2023/07/17 04:13:59;;;;;;;1999.90;999.90;;;15.00;99.90;;;;;;4954593;29;20023;-69
2023/07/17 04:16:26;;;;;;;1999.90;999.90;;;15.00;99.90;;;;;;4954748;29;20166;-69
2023/07/17 04:18:52;;;;;;;1999.90;999.90;;;15.00;99.90;;;;;;4954862;29;20019;-69
2023/07/17 04:21:18;;;;;;;1999.90;999.90;;;15.00;99.90;;;;;;4955076;29;20415;-74
2023/07/17 04:23:44;;;;;;;1999.90;999.90;;;15.00;99.90;;;;;;4955092;29;20027;-74
2023/07/17 04:26:09;;;;;;;1999.90;999.90;;;15.00;99.90;;;;;;4955053;29;20028;-69
2023/07/17 04:28:36;;;;;;;1999.90;999.90;;;15.00;99.90;;;;;;4937591;29;20442;-74
2023/07/17 04:31:03;;;;;;;1999.90;999.90;;;15.00;99.90;;;;;;4955331;29;20119;-70
2023/07/17 04:33:28;;;;;;;1999.90;999.90;;;14.90;99.90;;;;;;4962783;28;20035;-74
2023/07/17 04:35:56;;;;;;;1999.90;999.90;;;14.90;99.90;;;;;;4974211;28;20031;-73
2023/07/17 04:38:22;;;;;;;1999.90;999.90;;;14.90;99.90;;;;;;4973816;28;20110;-70
2023/07/17 04:40:47;;;;;;;1999.90;999.90;;;14.90;99.90;;;;;;4973769;28;20105;-70
2023/07/17 04:43:13;;;;;;;1999.90;999.90;;;14.90;99.90;;;;;;4974415;28;20057;-70
2023/07/17 04:45:42;;;;;;;1999.90;999.90;;;14.90;99.90;;;;;;4974123;28;20513;-70
2023/07/17 04:48:08;;;;;;;1999.90;999.90;;;14.90;99.90;;;;;;4974256;28;20027;-74
2023/07/17 04:50:33;;;;;;;1999.90;999.90;;;14.90;99.90;;;;;;4973979;28;20026;-74
2023/07/17 04:52:59;;;;;;;1999.90;999.90;;;14.90;99.90;;;;;;4973519;28;20391;-71
2023/07/17 04:55:25;;;;;;;1999.90;999.90;;;14.90;99.90;;;;;;4973875;28;20035;-70
2023/07/17 04:57:50;;;;;;;1999.90;999.90;;;15.00;99.90;;;;;;4974351;28;20026;-74
2023/07/17 05:00:16;;;;;;;1999.90;999.90;;;15.00;99.90;;;;;;4966082;28;20126;-70
2023/07/17 05:02:42;;;;;;;1999.90;999.90;;;15.00;99.90;;;;;;4953641;28;20032;-70
2023/07/17 05:05:09;;;;;;;1999.90;999.90;;;15.00;99.90;;;;;;4955000;28;20490;-70
2023/07/17 05:07:34;;;;;;;1999.90;999.90;;;15.10;99.90;;;;;;4957834;29;20038;-74
2023/07/17 05:10:00;;;;;;;1999.90;999.90;;;15.10;99.90;;;;;;4957711;29;20027;-71
2023/07/17 05:12:26;;;;;;;1999.90;999.90;;;15.20;99.90;;;;;;4940594;29;20130;-70
2023/07/17 05:14:51;;;;;;;1999.90;999.90;;;15.30;99.90;;;;;;4957490;29;20059;-74
2023/07/17 05:17:17;;;;;;;1999.90;999.90;;;15.40;99.90;;;;;;4957362;29;20035;-70
2023/07/17 05:19:42;;;;;;;1999.90;999.90;;;15.40;99.90;;;;;;4957768;29;20110;-70
2023/07/17 05:22:08;;;;;;;1999.90;999.90;;;15.40;99.90;;;;;;4940382;29;20067;-70
2023/07/17 05:24:34;;;;;;;1999.90;999.90;;;15.50;99.90;;;;;;4957591;29;20020;-70
2023/07/17 05:26:59;;;;;;;1999.90;999.90;;;15.60;99.90;;;;;;4958601;28;20027;-70
2023/07/17 05:29:25;;;;;;;1999.90;999.90;;;15.60;99.90;;;;;;4959277;28;20041;-74
2023/07/17 05:31:51;;;;;;;1999.90;999.90;;;15.70;99.90;;;;;;4968660;28;20031;-70
2023/07/17 05:34:17;;;;;;;1999.90;999.90;;;15.80;99.90;;;;;;4945160;29;20027;-70
2023/07/17 05:36:43;;;;;;;1999.90;999.90;;;15.90;99.90;;;;;;4956706;29;20446;-70
2023/07/17 05:39:08;;;;;;;1999.90;999.90;;;16.00;99.90;;;;;;4958351;28;20031;-70
2023/07/17 05:41:34;;;;;;;1999.90;999.90;;;16.00;99.90;;;;;;4953717;29;20023;-74
2023/07/17 05:43:59;;;;;;;1999.90;999.90;;;16.10;99.90;;;;;;4956433;29;20031;-70
2023/07/17 05:46:25;;;;;;;1999.90;999.90;;;16.20;99.90;;;;;;4954629;29;20055;-70
2023/07/17 05:48:50;;;;;;;1999.90;999.90;;;16.30;99.90;;;;;;4955733;29;20031;-70
2023/07/17 05:51:16;;;;;;;1999.90;999.90;;;16.40;99.90;;;;;;4938949;29;20130;-73
2023/07/17 05:53:42;;;;;;;1999.90;999.90;;;16.50;99.90;;;;;;4955742;28;20046;-73
2023/07/17 05:56:07;;;;;;;1999.90;999.90;;;16.60;99.90;;;;;;4955861;29;20439;-70
2023/07/17 05:58:33;;;;;;;1999.90;999.90;;;16.60;99.90;;;;;;4956309;29;20035;-70
2023/07/17 06:00:59;;;;;;;1999.90;999.90;;;16.70;99.90;;;;;;4954446;29;20034;-70
2023/07/17 06:03:25;;;;;;;1999.90;999.90;;;16.90;99.90;;;;;;4955818;28;20486;-70
2023/07/17 06:05:51;;;;;;;1999.90;999.90;;;17.00;99.90;;;;;;4955446;29;20023;-69
2023/07/17 06:08:17;;;;;;;1999.90;999.90;;;17.00;99.90;;;;;;4956119;29;20031;-70
2023/07/17 06:10:43;;;;;;;1999.90;999.90;;;17.10;99.90;;;;;;4954739;29;20027;-70
2023/07/17 06:13:09;;;;;;;1999.90;999.90;;;17.20;99.90;;;;;;4952911;29;20402;-70
2023/07/17 06:15:34;;;;;;;1999.90;999.90;;;17.30;99.90;;;;;;4955809;29;20024;-70
2023/07/17 06:18:00;;;;;;;1999.90;999.90;;;17.40;99.90;;;;;;4941144;28;20031;-71
2023/07/17 06:20:26;;;;;;;1999.90;999.90;;;17.50;99.90;;;;;;4954810;29;20046;-74
2023/07/17 06:22:51;;;;;;;1999.90;999.90;;;17.60;99.90;;;;;;4955545;29;20023;-70
2023/07/17 06:25:17;;;;;;;1999.90;999.90;;;17.80;99.90;;;;;;4956265;29;20059;-70
2023/07/17 06:27:43;;;;;;;1999.90;999.90;;;17.80;99.90;;;;;;4952689;28;20047;-71
2023/07/17 06:30:10;;;;;;;1999.90;999.90;;;17.90;99.90;;;;;;4954013;28;20031;-71
2023/07/17 06:32:36;;;;;;;1999.90;999.90;;;18.00;99.90;;;;;;4954500;29;20037;-74
2023/07/17 06:35:03;;;;;;;1999.90;999.90;;;18.10;99.90;;;;;;4948504;29;20032;-70
2023/07/17 06:37:29;;;;;;;1999.90;999.90;;;18.20;99.90;;;;;;4938612;29;20019;-70
2023/07/17 06:39:54;;;;;;;1999.90;999.90;;;18.30;99.90;;;;;;4962557;28;20113;-71
2023/07/17 06:42:20;;;;;;;1999.90;999.90;;;18.40;99.90;;;;;;4953963;28;20387;-70
2023/07/17 06:44:45;;;;;;;1999.90;999.90;;;18.50;99.90;;;;;;4954393;29;20063;-70
2023/07/17 06:47:11;;;;;;;1999.90;999.90;;;18.50;99.90;;;;;;4954919;29;20028;-71
2023/07/17 06:49:37;;;;;;;1999.90;999.90;;;18.60;99.90;;;;;;4954270;29;20046;-70
2023/07/17 06:52:02;;;;;;;1999.90;999.90;;;18.70;99.90;;;;;;4954161;29;20027;-70
2023/07/17 06:54:28;;;;;;;1999.90;999.90;;;18.90;99.90;;;;;;4951417;29;20062;-70
2023/07/17 06:56:53;;;;;;;1999.90;999.90;;;19.00;99.90;;;;;;4953054;29;20367;-73
2023/07/17 06:59:19;;;;;;;1999.90;999.90;;;19.10;99.90;;;;;;4952901;29;20087;-70
2023/07/17 07:01:45;;;;;;;1999.90;999.90;;;19.20;99.90;;;;;;4934460;29;20449;-70
2023/07/17 07:04:11;;;;;;;1999.90;999.90;;;19.30;99.90;;;;;;4952905;29;20402;-70
2023/07/17 07:06:36;;;;;;;1999.90;999.90;;;19.40;99.90;;;;;;4951861;29;20035;-70
2023/07/17 07:09:03;;;;;;;1999.90;999.90;;;19.50;99.90;;;;;;4955739;28;20039;-74
2023/07/17 07:11:28;;;;;;;1999.90;999.90;;;19.70;99.90;;;;;;4934103;29;20395;-74
2023/07/17 07:13:54;;;;;;;1999.90;999.90;;;19.90;99.90;;;;;;4953880;28;20022;-74
2023/07/17 07:16:20;;;;;;;1999.90;999.90;;;20.10;99.90;;;;;;4952780;28;20146;-71
2023/07/17 07:18:45;;;;;;;1999.90;999.90;;;20.40;99.90;;;;;;4948258;29;20067;-71
2023/07/17 07:21:11;;;;;;;1999.90;999.90;;;20.60;99.90;;;;;;4951045;28;20031;-71
2023/07/17 07:23:36;;;;;;;1999.90;999.90;;;21.00;99.90;;;;;;4953256;28;20028;-71
2023/07/17 07:26:02;;;;;;;1999.90;999.90;;;21.30;99.90;;;;;;4953312;28;20506;-71
2023/07/17 07:28:28;;;;;;;1999.90;999.90;;;21.30;99.90;;;;;;4954767;28;20030;-71
2023/07/17 07:30:55;;;;;;;1999.90;999.90;;;21.40;99.90;;;;;;4952480;29;20027;-71
2023/07/17 07:33:21;;;;;;;1999.90;999.90;;;21.50;99.90;;;;;;4939134;29;20035;-71
2023/07/17 07:35:47;;;;;;;1999.90;999.90;;;21.20;99.90;;;;;;4940905;29;20509;-71
2023/07/17 07:38:13;;;;;;;1999.90;999.90;;;20.90;99.90;;;;;;4947104;28;20070;-70
2023/07/17 07:40:39;;;;;;;1999.90;999.90;;;20.80;99.90;;;;;;4949857;29;20054;-71
2023/07/17 07:43:04;;;;;;;1999.90;999.90;;;20.70;99.90;;;;;;4942349;29;20039;-71
2023/07/17 07:45:30;;;;;;;1999.90;999.90;;;20.80;99.90;;;;;;4938341;29;20055;-71
2023/07/17 07:47:56;;;;;;;1999.90;999.90;;;23.30;99.90;;;;;;4952194;29;20039;-74
2023/07/17 07:50:22;;;;;;;1999.90;999.90;;;25.10;99.90;;;;;;4953052;28;20024;-75
2023/07/17 07:52:48;;;;;;;1999.90;999.90;;;27.10;99.90;;;;;;4948830;29;20069;-73
2023/07/17 07:55:13;;;;;;;1999.90;999.90;;;28.40;99.90;;;;;;4952187;29;20091;-72
2023/07/17 07:57:39;;;;;;;1999.90;999.90;;;28.00;99.90;;;;;;4951667;29;20034;-72
2023/07/17 08:00:05;;;;;;;1999.90;999.90;;;25.60;99.90;;;;;;4952969;29;20538;-72
2023/07/17 08:02:31;;;;;;;1999.90;999.90;;;23.70;99.90;;;;;;4952347;29;20402;-72
2023/07/17 08:04:57;;;;;;;1999.90;999.90;;;22.80;99.90;;;;;;4948693;29;20031;-74
2023/07/17 08:07:22;;;;;;;1999.90;999.90;;;25.40;99.90;;;;;;4952177;29;20035;-71
2023/07/17 08:09:48;;;;;;;1999.90;999.90;;;27.70;99.90;;;;;;4931646;29;20070;-72
2023/07/17 08:12:13;;;;;;;1999.90;999.90;;;29.10;99.90;;;;;;4950644;28;20035;-71
2023/07/17 08:14:39;;;;;;;1999.90;999.90;;;26.80;99.90;;;;;;4955878;28;20036;-71
2023/07/17 08:17:05;;;;;;;1999.90;999.90;;;26.00;99.90;;;;;;4957381;28;20046;-72
2023/07/17 08:19:30;;;;;;;1999.90;999.90;;;25.40;99.90;;;;;;4952337;29;20028;-71
2023/07/17 08:21:56;;;;;;;1999.90;999.90;;;27.00;99.90;;;;;;4952121;28;20043;-72
2023/07/17 08:24:22;;;;;;;1999.90;999.90;;;28.20;99.90;;;;;;4955662;28;20115;-71
2023/07/17 08:26:47;;;;;;;1999.90;999.90;;;30.10;99.90;;;;;;4960844;28;20035;-71
2023/07/17 08:29:13;;;;;;;1999.90;999.90;;;31.00;98.70;;;;;;4952747;28;20034;-74
2023/07/17 08:31:38;;;;;;;1999.90;999.90;;;27.70;99.90;;;;;;4950745;29;20455;-71
2023/07/17 08:34:04;;;;;;;1999.90;999.90;;;27.60;99.90;;;;;;4951532;29;20046;-72
2023/07/17 08:36:30;;;;;;;1999.90;999.90;;;28.10;99.90;;;;;;4935444;28;20086;-72
2023/07/17 08:38:56;;;;;;;1999.90;999.90;;;30.50;99.90;;;;;;4949250;28;20039;-72
2023/07/17 08:41:22;;;;;;;1999.90;999.90;;;32.60;97.90;;;;;;4954044;28;20043;-72
2023/07/17 08:43:49;;;;;;;1999.90;999.90;;;31.70;96.40;;;;;;4955785;29;20031;-75
2023/07/17 08:46:15;;;;;;;1999.90;999.90;;;30.20;99.00;;;;;;4953818;28;20039;-71
2023/07/17 08:48:43;;;;;;;1999.90;999.90;;;29.30;99.00;;;;;;4955504;28;20039;-71
2023/07/17 08:51:10;;;;;;;1999.90;999.90;;;29.50;99.40;;;;;;4954755;28;20148;-71
2023/07/17 08:53:38;;;;;;;1999.90;999.90;;;27.10;99.90;;;;;;4954665;28;20055;-74
2023/07/17 08:56:05;;;;;;;1999.90;999.90;;;26.40;99.90;;;;;;4955406;29;20042;-74
2023/07/17 08:58:31;;;;;;;1999.90;999.90;;;29.80;99.90;;;;;;4954708;29;20039;-72
2023/07/17 09:00:57;;;;;;;1999.90;999.90;;;31.80;98.80;;;;;;4953914;29;20027;-71
2023/07/17 09:03:23;;;;;;;1999.90;999.90;;;33.80;95.90;;;;;;4951637;29;20090;-72
2023/07/17 09:05:49;;;;;;;1999.90;999.90;;;34.70;95.10;;;;;;4937266;29;20023;-72
2023/07/17 09:08:15;;;;;;;1999.90;999.90;;;33.20;94.20;;;;;;4954211;29;20031;-72
2023/07/17 09:10:41;;;;;;;1999.90;999.90;;;33.00;95.80;;;;;;4936279;28;20034;-72
2023/07/17 09:13:06;;;;;;;1999.90;999.90;;;33.40;94.30;;;;;;4944370;28;20051;-72
2023/07/17 09:15:33;;;;;;;1999.90;999.90;;;33.90;95.10;;;;;;4963738;28;20023;-72
2023/07/17 09:17:59;;;;;;;1999.90;999.90;;;34.70;92.80;;;;;;4956161;28;20031;-71
2023/07/17 09:20:25;;;;;;;1999.90;999.90;;;30.70;94.90;;;;;;4952697;28;20035;-71
2023/07/17 09:22:55;;;;;;;1999.90;999.90;;;27.70;99.80;;;;;;4939761;29;20094;-70
2023/07/17 09:25:26;;;;;;;1999.90;999.90;;;26.30;99.90;;;;;;4946244;29;20379;-70
2023/07/17 09:27:52;;;;;;;1999.90;999.90;;;25.10;99.90;;;;;;4950150;28;20102;-70
2023/07/17 09:30:23;;;;;;;1999.90;999.90;;;25.80;99.90;;;;;;4954433;28;20534;-71
2023/07/17 09:32:50;;;;;;;1999.90;999.90;;;29.30;99.90;;;;;;4955466;28;20070;-75
2023/07/17 09:35:23;;;;;;;1999.90;999.90;;;29.90;99.50;;;;;;4952828;29;20366;-70
2023/07/17 09:37:49;;;;;;;1999.90;999.90;;;27.70;99.90;;;;;;4951384;28;20035;-70
2023/07/17 09:40:17;;;;;;;1999.90;999.90;;;26.00;99.90;;;;;;4936310;28;20027;-71
2023/07/17 09:42:45;;;;;;;1999.90;999.90;;;28.90;99.90;;;;;;4957912;28;20423;-71
2023/07/17 09:45:11;;;;;;;1999.90;999.90;;;31.60;99.00;;;;;;4939298;29;20031;-70
2023/07/17 09:47:37;;;;;;;1999.90;999.90;;;32.60;96.30;;;;;;4953507;29;20059;-74
2023/07/17 09:50:03;;;;;;;1999.90;999.90;;;32.20;97.70;;;;;;4953973;29;20039;-70
2023/07/17 09:52:30;;;;;;;1999.90;999.90;;;32.90;96.60;;;;;;4953628;28;20059;-71
2023/07/17 09:55:00;;;;;;;1999.90;999.90;;;32.70;95.70;;;;;;4953704;29;20050;-71
2023/07/17 09:57:31;;;;;;;1999.90;999.90;;;34.10;95.00;;;;;;4954556;29;20027;-71
2023/07/17 09:59:58;;;;;;;1999.90;999.90;;;34.60;94.10;;;;;;4953671;29;20035;-70
2023/07/17 10:02:30;;;;;;;1999.90;999.90;;;32.60;94.40;;;;;;4953042;28;20106;-70
2023/07/17 10:04:59;;;;;;;1999.90;999.90;;;30.90;96.30;;;;;;4950148;29;20027;-70
2023/07/17 10:07:26;;;;;;;1999.90;999.90;;;28.20;99.80;;;;;;4954600;29;20024;-70
2023/07/17 10:09:52;;;;;;;1999.90;999.90;;;28.40;99.90;;;;;;4957640;28;20122;-70
2023/07/17 10:12:19;;;;;;;1999.90;999.90;;;30.20;99.90;;;;;;4954391;29;20091;-75
2023/07/17 10:14:48;;;;;;;1999.90;999.90;;;31.50;97.00;;;;;;4964009;28;20035;-74
2023/07/17 10:17:23;;;;;;;1999.90;999.90;;;29.30;97.60;;;;;;4958704;28;20034;-71
2023/07/17 10:19:49;;;;;;;1999.90;999.90;;;30.40;98.30;;;;;;4938591;28;20058;-70
2023/07/17 10:22:15;;;;;;;1999.90;999.90;;;31.00;97.00;;;;;;4952973;28;20070;-71
2023/07/17 10:24:41;;;;;;;1999.90;999.90;;;31.50;96.00;;;;;;4953998;29;20034;-71
2023/07/17 10:27:07;;;;;;;1999.90;999.90;;;32.70;95.30;;;;;;4952556;28;20054;-71
2023/07/17 10:29:43;;;;;;;1999.90;999.90;;;32.50;94.80;;;;;;4953764;28;20031;-71
2023/07/17 10:32:14;;;;;;;1999.90;999.90;;;32.10;95.30;;;;;;4953739;29;20016;-71
2023/07/17 10:34:53;;;;;;;1999.90;999.90;;;33.50;94.40;;;;;;4953223;29;20114;-71
2023/07/17 10:37:41;;;;;;;1999.90;999.90;;;33.40;94.30;;;;;;4948358;29;20031;-74
2023/07/17 10:40:24;;;;;;;1999.90;999.90;;;33.00;94.20;;;;;;4956136;28;20030;-74
2023/07/17 10:42:50;;;;;;;1999.90;999.90;;;32.50;94.40;;;;;;4955290;28;20541;-71
2023/07/17 10:45:16;;;;;;;1999.90;999.90;;;32.90;94.80;;;;;;4932316;29;20352;-70
2023/07/17 10:47:41;;;;;;;1999.90;999.90;;;32.20;94.10;;;;;;4949836;29;20031;-70
2023/07/17 10:50:08;;;;;;;1999.90;999.90;;;31.40;95.40;;;;;;4945188;29;20449;-74
2023/07/17 10:52:34;;;;;;;1999.90;999.90;;;31.10;95.10;;;;;;4952527;28;20495;-74
2023/07/17 10:55:06;;;;;;;1999.90;999.90;;;31.90;94.70;;;;;;4952114;29;20126;-70
2023/07/17 10:57:32;;;;;;;1999.90;999.90;;;32.30;94.40;;;;;;4940135;29;20473;-70
2023/07/17 10:59:58;;;;;;;1999.90;999.90;;;32.00;94.60;;;;;;4944254;29;20039;-70
2023/07/17 11:02:26;;;;;;;1999.90;999.90;;;32.30;95.10;;;;;;4948817;28;20094;-70
2023/07/17 11:04:57;;;;;;;1999.90;999.90;;;32.00;94.50;;;;;;4951423;29;20020;-75
2023/07/17 11:07:24;;;;;;;1999.90;999.90;;;32.50;95.00;;;;;;4961209;28;20015;-71
2023/07/17 11:09:49;;;;;;;1999.90;999.90;;;32.40;93.70;;;;;;4966367;28;20031;-71
2023/07/17 11:12:17;;;;;;;1999.90;999.90;;;32.40;94.60;;;;;;4961557;28;20034;-71
2023/07/17 11:14:43;;;;;;;1999.90;999.90;;;32.60;94.10;;;;;;4945889;28;20058;-70
2023/07/17 11:17:12;;;;;;;1999.90;999.90;;;33.20;94.30;;;;;;4951858;28;20078;-71
2023/07/17 11:19:37;;;;;;;1999.90;999.90;;;33.00;94.00;;;;;;4952286;28;20035;-70
2023/07/17 11:22:04;;;;;;;1999.90;999.90;;;32.90;93.60;;;;;;4956673;28;20371;-70
2023/07/17 11:24:30;;;;;;;1999.90;999.90;;;32.10;94.60;;;;;;4954106;28;20031;-72
2023/07/17 11:26:58;;;;;;;1999.90;999.90;;;31.50;94.70;;;;;;4935361;28;20042;-70
2023/07/17 11:29:24;;;;;;;1999.90;999.90;;;31.20;95.40;;;;;;4960306;28;20122;-70
2023/07/17 11:31:56;;;;;;;1999.90;999.90;;;31.40;95.30;;;;;;4952161;28;20032;-70
2023/07/17 11:34:23;;;;;;;1999.90;999.90;;;31.60;95.20;;;;;;4939494;29;20031;-72
2023/07/17 11:36:48;;;;;;;1999.90;999.90;;;31.40;95.00;;;;;;4958467;28;20026;-71
2023/07/17 11:39:20;;;;;;;1999.90;999.90;;;31.60;94.90;;;;;;4957557;28;20394;-70
2023/07/17 11:41:48;;;;;;;1999.90;999.90;;;31.40;95.90;;;;;;4938962;29;20450;-70
2023/07/17 11:44:20;;;;;;;1999.90;999.90;;;31.80;95.10;;;;;;4962128;28;20026;-73
2023/07/17 11:46:46;;;;;;;1999.90;999.90;;;31.80;95.50;;;;;;4961323;28;20733;-72
2023/07/17 11:49:13;;;;;;;1999.90;999.90;;;32.10;94.50;;;;;;4951966;29;20023;-70
2023/07/17 11:51:42;;;;;;;1999.90;999.90;;;31.70;94.30;;;;;;4952112;29;20039;-71
2023/07/17 11:54:08;;;;;;;1999.90;999.90;;;31.20;94.70;;;;;;4953049;28;20054;-71